createdAt,value
2017-09-07T00:03:40.002Z,76.00
2017-09-07T00:08:43.246Z,76.40
2017-09-07T00:13:46.503Z,78.00
2017-09-07T00:18:49.737Z,77.20
2017-09-07T00:23:52.941Z,77.80
2017-09-07T00:28:56.157Z,78.40
2017-09-07T00:33:59.369Z,78.30
2017-09-07T00:39:02.545Z,79.20
2017-09-07T00:44:05.738Z,79.40
2017-09-07T00:49:08.937Z,78.90
2017-09-07T00:54:12.132Z,79.50
2017-09-07T00:59:15.395Z,79.40
2017-09-07T01:04:18.601Z,79.20
2017-09-07T01:09:21.757Z,78.40
2017-09-07T01:14:25.085Z,78.20
2017-09-07T01:19:28.378Z,78.40
2017-09-07T01:24:31.573Z,79.50
2017-09-07T01:29:34.784Z,80.20
2017-09-07T01:34:37.992Z,80.60
2017-09-07T01:39:41.212Z,82.20
2017-09-07T01:44:44.400Z,83.10
2017-09-07T01:49:47.587Z,82.70
2017-09-07T01:54:50.831Z,82.60
2017-09-07T01:59:54.063Z,83.50
2017-09-07T02:04:57.282Z,83.70
2017-09-07T02:10:00.433Z,83.90
2017-09-07T02:15:03.647Z,82.50
2017-09-07T02:20:06.860Z,82.00
2017-09-07T02:25:10.252Z,81.50
2017-09-07T02:30:13.459Z,81.50
2017-09-07T02:35:16.685Z,82.40
2017-09-07T02:40:19.885Z,82.10
2017-09-07T02:45:23.184Z,82.00
2017-09-07T02:50:26.605Z,81.60
2017-09-07T02:55:29.825Z,81.50
2017-09-07T03:00:33.052Z,80.90
2017-09-07T03:05:36.272Z,80.60
2017-09-07T03:10:39.485Z,80.30
2017-09-07T03:15:42.682Z,80.40
2017-09-07T03:20:45.904Z,81.50
2017-09-07T03:25:49.115Z,82.10
2017-09-07T03:30:52.320Z,82.30
2017-09-07T03:35:55.553Z,82.20
2017-09-07T03:40:58.735Z,82.20
2017-09-07T03:46:01.940Z,82.30
2017-09-07T03:51:05.168Z,82.60
2017-09-07T03:56:08.381Z,82.10
2017-09-07T04:01:11.575Z,83.00
2017-09-07T04:06:14.803Z,82.10
2017-09-07T04:11:18.034Z,81.20
2017-09-07T04:16:21.224Z,81.70
2017-09-07T04:21:24.646Z,81.60
2017-09-07T04:26:27.947Z,81.80
2017-09-07T04:31:31.166Z,82.90
2017-09-07T04:36:34.464Z,82.60
2017-09-07T04:41:37.689Z,82.20
2017-09-07T04:46:40.934Z,82.60
2017-09-07T04:51:44.123Z,82.10
2017-09-07T04:56:47.323Z,82.40
2017-09-07T05:01:50.572Z,83.10
2017-09-07T05:06:53.820Z,82.70
2017-09-07T05:11:57.055Z,82.30
2017-09-07T05:17:00.260Z,81.80
2017-09-07T05:22:03.479Z,81.50
2017-09-07T05:27:06.705Z,81.40
2017-09-07T05:32:09.931Z,80.90
2017-09-07T05:37:13.252Z,80.90
2017-09-07T05:42:16.445Z,81.10
2017-09-07T05:47:19.664Z,80.20
2017-09-07T05:52:23.003Z,80.60
2017-09-07T05:57:26.215Z,80.30
2017-09-07T06:02:29.549Z,80.30
2017-09-07T06:07:32.760Z,81.20
2017-09-07T06:12:35.969Z,80.20
2017-09-07T06:17:39.168Z,79.30
2017-09-07T06:22:42.376Z,78.90
2017-09-07T06:27:45.604Z,79.30
2017-09-07T06:32:48.816Z,79.20
2017-09-07T06:37:52.038Z,78.40
2017-09-07T06:42:55.352Z,78.40
2017-09-07T06:47:58.552Z,78.00
2017-09-07T06:53:01.791Z,76.40
2017-09-07T06:58:04.980Z,76.90
2017-09-07T07:03:08.208Z,75.70
2017-09-07T07:08:11.423Z,75.80
2017-09-07T07:13:14.759Z,75.40
2017-09-07T07:18:17.992Z,74.10
2017-09-07T07:23:21.233Z,73.80
2017-09-07T07:28:24.452Z,74.40
2017-09-07T07:33:27.707Z,73.50
2017-09-07T07:38:30.922Z,72.00
2017-09-07T07:43:34.145Z,72.50
2017-09-07T07:48:37.355Z,71.70
2017-09-07T07:53:40.558Z,71.00
2017-09-07T07:58:43.777Z,70.50
2017-09-07T08:03:46.970Z,70.60
2017-09-07T08:08:50.214Z,70.20
2017-09-07T08:13:53.726Z,69.70
2017-09-07T08:18:56.953Z,68.60
2017-09-07T08:24:00.165Z,66.60
2017-09-07T08:29:03.361Z,66.40
2017-09-07T08:34:06.593Z,63.70
2017-09-07T08:39:09.808Z,61.20
2017-09-07T08:44:13.037Z,62.50
2017-09-07T08:49:16.279Z,63.80
2017-09-07T08:54:19.608Z,62.60
2017-09-07T08:59:22.841Z,61.50
2017-09-07T09:04:26.063Z,61.50
2017-09-07T09:09:29.296Z,60.50
2017-09-07T09:14:32.499Z,59.80
2017-09-07T09:19:35.703Z,61.10
2017-09-07T09:24:38.925Z,59.10
2017-09-07T09:29:42.135Z,57.40
2017-09-07T09:34:45.342Z,55.60
2017-09-07T09:39:48.532Z,55.10
2017-09-07T09:44:51.776Z,54.40
2017-09-07T09:49:55.124Z,54.10
2017-09-07T09:54:58.338Z,54.40
2017-09-07T10:00:01.634Z,52.90
2017-09-07T10:05:04.828Z,52.10
2017-09-07T10:10:08.038Z,50.80
2017-09-07T10:15:11.227Z,50.50
2017-09-07T10:20:14.480Z,51.30
2017-09-07T10:25:17.691Z,49.50
2017-09-07T10:30:20.885Z,51.80
2017-09-07T10:35:24.099Z,51.80
2017-09-07T10:40:27.331Z,52.30
2017-09-07T10:45:30.567Z,51.10
2017-09-07T10:50:33.854Z,50.20
2017-09-07T10:55:37.052Z,50.20
2017-09-07T11:00:40.300Z,49.60
2017-09-07T11:05:43.502Z,49.10
2017-09-07T11:10:46.687Z,48.20
2017-09-07T11:15:49.912Z,49.00
2017-09-07T11:20:53.118Z,48.50
2017-09-07T11:25:56.329Z,49.20
2017-09-07T11:30:59.590Z,48.40
2017-09-07T11:36:02.842Z,47.90
2017-09-07T11:41:06.187Z,48.40
2017-09-07T11:46:09.399Z,48.10
2017-09-07T11:51:12.624Z,47.50
2017-09-07T11:56:15.859Z,48.90
2017-09-07T12:01:19.035Z,48.20
2017-09-07T12:06:22.233Z,48.00
2017-09-07T12:11:25.436Z,47.60
2017-09-07T12:16:28.648Z,48.40
2017-09-07T12:21:31.847Z,49.20
2017-09-07T12:26:35.147Z,49.50
2017-09-07T12:31:38.353Z,49.10
2017-09-07T12:36:41.616Z,46.50
2017-09-07T12:41:44.811Z,47.40
2017-09-07T12:46:48.033Z,49.30
2017-09-07T12:51:51.238Z,48.20
2017-09-07T12:56:54.464Z,47.40
2017-09-07T13:01:57.674Z,46.90
2017-09-07T13:07:00.881Z,47.30
2017-09-07T13:12:04.105Z,44.40
2017-09-07T13:17:07.316Z,45.70
2017-09-07T13:22:10.547Z,45.60
2017-09-07T13:27:13.778Z,45.30
2017-09-07T13:32:17.006Z,43.30
2017-09-07T13:37:20.261Z,44.20
2017-09-07T13:42:23.488Z,44.90
2017-09-07T13:47:26.710Z,45.00
2017-09-07T13:52:29.939Z,43.70
2017-09-07T13:57:33.149Z,44.20
2017-09-07T14:02:36.385Z,44.10
2017-09-07T14:07:39.595Z,43.90
2017-09-07T14:12:42.805Z,43.70
2017-09-07T14:17:46.027Z,44.10
2017-09-07T14:22:49.248Z,45.30
2017-09-07T14:27:52.467Z,45.30
2017-09-07T14:32:55.676Z,44.90
2017-09-07T14:37:58.885Z,44.40
2017-09-07T14:43:02.124Z,43.50
2017-09-07T14:48:05.346Z,42.20
2017-09-07T14:53:08.549Z,40.60
2017-09-07T14:58:11.793Z,43.40
2017-09-07T15:03:15.013Z,41.50
2017-09-07T15:08:18.266Z,42.10
2017-09-07T15:13:21.501Z,41.30
2017-09-07T15:18:24.709Z,40.70
2017-09-07T15:23:28.003Z,41.30
2017-09-07T15:28:31.215Z,41.80
2017-09-07T15:33:34.446Z,43.40
2017-09-07T15:38:37.660Z,43.60
2017-09-07T15:43:40.929Z,44.30
2017-09-07T15:48:44.157Z,43.90
2017-09-07T15:53:47.377Z,45.50
2017-09-07T15:58:50.659Z,45.20
2017-09-07T16:03:53.863Z,45.70
2017-09-07T16:08:57.076Z,46.20
2017-09-07T16:14:00.374Z,47.50
2017-09-07T16:19:03.641Z,48.80
2017-09-07T16:24:06.866Z,49.30
2017-09-07T16:29:10.066Z,48.20
2017-09-07T16:34:13.282Z,49.00
2017-09-07T16:39:16.508Z,49.10
2017-09-07T16:44:19.718Z,50.00
2017-09-07T16:49:22.927Z,50.00
2017-09-07T16:54:26.158Z,50.80
2017-09-07T16:59:29.366Z,51.50
2017-09-07T17:05:02.070Z,50.80
2017-09-07T17:10:05.270Z,51.70
2017-09-07T17:15:08.501Z,52.20
2017-09-07T17:20:11.852Z,52.00
2017-09-07T17:25:15.093Z,52.80
2017-09-07T17:30:18.471Z,52.50
2017-09-07T17:35:21.769Z,52.00
2017-09-07T17:40:24.997Z,52.30
2017-09-07T17:45:28.209Z,53.30
2017-09-07T17:50:32.189Z,54.70
2017-09-07T17:55:35.390Z,54.60
2017-09-07T18:00:38.608Z,54.80
2017-09-07T18:05:41.829Z,55.40
2017-09-07T18:10:45.012Z,55.50
2017-09-07T18:15:48.231Z,55.60
2017-09-07T18:20:51.428Z,56.80
2017-09-07T18:25:54.632Z,56.10
2017-09-07T18:30:57.867Z,56.30
2017-09-07T18:36:01.096Z,56.10
2017-09-07T18:41:04.297Z,56.10
2017-09-07T18:46:07.509Z,57.00
2017-09-07T18:51:10.709Z,57.70
2017-09-07T18:56:14.676Z,58.70
2017-09-07T19:01:17.900Z,58.70
2017-09-07T19:06:21.257Z,58.80
2017-09-07T19:11:25.554Z,59.60
2017-09-07T19:16:28.732Z,60.10
2017-09-07T19:21:32.066Z,60.40
2017-09-07T19:26:35.330Z,60.70
2017-09-07T19:31:38.541Z,60.80
2017-09-07T19:36:41.756Z,61.50
2017-09-07T19:41:45.287Z,61.40
2017-09-07T19:46:48.646Z,60.90
2017-09-07T19:51:52.626Z,61.30
2017-09-07T19:56:55.825Z,61.10
2017-09-07T20:01:59.262Z,61.50
2017-09-07T20:07:02.483Z,61.20
2017-09-07T20:12:05.723Z,62.00
2017-09-07T20:17:08.937Z,62.80
2017-09-07T20:22:12.144Z,63.30
2017-09-07T20:27:15.410Z,62.90
2017-09-07T20:32:18.828Z,62.80
2017-09-07T20:37:22.138Z,63.00
2017-09-07T20:42:25.348Z,62.90
2017-09-07T20:47:28.558Z,63.30
2017-09-07T20:52:31.786Z,64.60
2017-09-07T20:57:35.027Z,63.40
2017-09-07T21:02:38.224Z,63.90
2017-09-07T21:07:41.467Z,64.60
2017-09-07T21:12:44.687Z,64.10
2017-09-07T21:17:47.889Z,64.00
2017-09-07T21:22:51.123Z,63.70
2017-09-07T21:27:54.357Z,63.10
2017-09-07T21:32:57.586Z,63.90
2017-09-07T21:38:00.839Z,63.90
2017-09-07T21:43:05.160Z,64.20
2017-09-07T21:48:08.366Z,64.30
2017-09-07T21:53:11.563Z,64.60
2017-09-07T21:58:14.764Z,64.50
2017-09-07T22:03:17.995Z,64.90
2017-09-07T22:08:21.212Z,65.60
2017-09-07T22:13:24.450Z,65.30
2017-09-07T22:18:27.730Z,65.70
2017-09-07T22:23:30.920Z,65.90
2017-09-07T22:28:34.962Z,66.20
2017-09-07T22:33:38.177Z,66.20
2017-09-07T22:38:41.431Z,66.70
2017-09-07T22:43:44.678Z,66.60
2017-09-07T22:48:47.877Z,66.30
2017-09-07T22:53:51.082Z,67.30
2017-09-07T22:58:54.291Z,68.00
2017-09-07T23:03:57.564Z,68.90
2017-09-07T23:09:00.801Z,68.50
2017-09-07T23:14:04.126Z,68.80
2017-09-07T23:19:07.342Z,69.10
2017-09-07T23:24:10.708Z,69.10
2017-09-07T23:29:13.907Z,69.30
2017-09-07T23:34:17.123Z,69.40
2017-09-07T23:39:20.337Z,69.20
2017-09-07T23:44:23.585Z,69.00
2017-09-07T23:49:26.808Z,68.60
2017-09-07T23:54:30.008Z,68.30
2017-09-07T23:59:33.401Z,67.40
